Roaring Spring, Pennsylvania
Current Conditions -  °F | °C
As of 11:53 PM on Friday 24 Oct 2014 (Local Time) from KAOO Reporting Station
Clear Clear  
Wind Chill: 50°   Ceiling: Unl
Heat Index: 50°   Visibility: 10mi
Dew Point: 37°   Wind: 6mph
Humidity: 61%   Direction: 210°SSW
Pressure: 29.99"   Gusts: NA
Location:  40.34°N, 78.39°W
Report Text: KAOO 250353Z AUTO 21005KT 10SM CLR 10/03 A2999 RMK AO2 SLP156 T01000028
Loading
Personal Weather Stations






























Interactive Weather Map New forecast layout! Learn more

10-Day Weather Forecast

Advertisements
Track Severe Weather on mobile